C Gables, Florida
Current Conditions -  °F | °C
As of 4:53 PM on Wednesday 26 Nov 2014 (Local Time) from KTMB Reporting Station
Broken Clouds Broken Clouds  
Wind Chill: 65°   Ceiling: 8500
Heat Index: 65°   Visibility: 10mi
Dew Point: 53°   Wind: 17mph
Humidity: 65%   Direction: 340°NNW
Pressure: 30.12"   Gusts: NA
Location:  25.6371°N, 80.3102°W
Report Text: KTMB 262153Z 34015KT 10SM FEW035 BKN085 18/12 A3012 RMK AO2 SLP199 T01830117
Loading
Personal Weather Stations






























Interactive Weather Map New forecast layout! Learn more

10-Day Weather Forecast

Advertisements
Track Severe Weather on mobile